createdAt,value
2022-10-11T04:01:03.257Z,1.50
2022-10-11T04:02:10.324Z,1.60
2022-10-11T04:03:03.176Z,1.40
2022-10-11T04:04:03.246Z,1.30
2022-10-11T04:05:03.160Z,1.40
2022-10-11T04:06:03.606Z,1.60
2022-10-11T04:07:03.306Z,1.50
2022-10-11T04:08:03.119Z,1.50
2022-10-11T04:09:03.114Z,2.20
2022-10-11T04:10:03.097Z,1.70
2022-10-11T04:11:03.084Z,1.50
2022-10-11T04:12:03.066Z,1.60
2022-10-11T04:13:03.104Z,1.60
2022-10-11T04:14:03.033Z,1.80
2022-10-11T04:15:03.027Z,1.50
2022-10-11T04:16:03.239Z,1.60
2022-10-11T04:17:03.003Z,2.10
2022-10-11T04:18:02.986Z,1.40
2022-10-11T04:19:03.054Z,1.50
2022-10-11T04:20:02.974Z,1.90
2022-10-11T04:21:02.962Z,1.80
2022-10-11T04:22:02.944Z,1.60
2022-10-11T04:23:02.932Z,1.60
2022-10-11T04:24:03.089Z,1.10
2022-10-11T04:25:02.961Z,1.30
2022-10-11T04:26:03.232Z,1.00
2022-10-11T04:27:02.875Z,1.80
2022-10-11T04:28:02.865Z,1.60
2022-10-11T04:29:02.852Z,1.70
2022-10-11T04:30:02.901Z,1.30
2022-10-11T04:31:02.925Z,1.40
2022-10-11T04:32:02.800Z,1.70
2022-10-11T04:33:02.790Z,1.80
2022-10-11T04:34:02.786Z,2.00
2022-10-11T04:35:04.541Z,1.50
2022-10-11T04:36:02.957Z,1.70
2022-10-11T04:37:02.812Z,1.70
2022-10-11T04:38:02.757Z,2.10
2022-10-11T04:39:02.719Z,1.30
2022-10-11T04:40:02.706Z,1.40
2022-10-11T04:41:02.690Z,1.30
2022-10-11T04:42:02.693Z,1.60
2022-10-11T04:43:02.717Z,1.20
2022-10-11T04:44:02.647Z,1.70
2022-10-11T04:45:02.644Z,1.80
2022-10-11T04:46:02.629Z,1.60
2022-10-11T04:47:02.607Z,1.60
2022-10-11T04:48:02.598Z,1.80
2022-10-11T04:49:02.669Z,1.40
2022-10-11T04:50:02.581Z,1.60
2022-10-11T04:51:02.696Z,1.30
2022-10-11T04:52:02.543Z,1.40
2022-10-11T04:53:02.536Z,1.30
2022-10-11T04:54:02.585Z,2.10
2022-10-11T04:55:02.568Z,1.20
2022-10-11T04:56:02.870Z,1.30
2022-10-11T04:57:02.501Z,1.50
2022-10-11T04:58:02.482Z,1.80
2022-10-11T04:59:02.453Z,1.80
2022-10-11T05:00:02.456Z,1.80
2022-10-11T05:01:05.666Z,1.80
2022-10-11T05:02:02.472Z,1.80
2022-10-11T05:03:02.406Z,1.80
2022-10-11T05:04:02.407Z,1.80
2022-10-11T05:05:02.407Z,2.00
2022-10-11T05:06:05.631Z,2.00
2022-10-11T05:07:02.384Z,2.20
2022-10-11T05:08:02.344Z,2.20
2022-10-11T05:09:02.332Z,2.00
2022-10-11T05:10:02.313Z,2.10
2022-10-11T05:11:02.302Z,1.80
2022-10-11T05:12:02.302Z,1.90
2022-10-11T05:13:02.366Z,1.50
2022-10-11T05:14:02.262Z,1.70
2022-10-11T05:15:02.261Z,2.00
2022-10-11T05:16:04.029Z,1.30
2022-10-11T05:17:02.239Z,1.70
2022-10-11T05:18:02.234Z,1.80
2022-10-11T05:19:02.307Z,1.80
2022-10-11T05:20:02.180Z,2.70
2022-10-11T05:21:02.220Z,1.70
2022-10-11T05:22:02.172Z,1.90
2022-10-11T05:23:02.201Z,2.20
2022-10-11T05:24:02.160Z,1.60
2022-10-11T05:25:02.119Z,1.80
2022-10-11T05:26:02.488Z,2.00
2022-10-11T05:27:03.517Z,1.70
2022-10-11T05:28:02.088Z,2.00
2022-10-11T05:29:03.868Z,1.90
2022-10-11T05:30:02.059Z,1.90
2022-10-11T05:31:02.043Z,1.80
2022-10-11T05:32:02.053Z,1.70
2022-10-11T05:33:02.024Z,2.00
2022-10-11T05:34:01.999Z,1.30
2022-10-11T05:35:02.037Z,1.60
2022-10-11T05:36:02.383Z,1.80
2022-10-11T05:37:01.959Z,1.40
2022-10-11T05:38:01.958Z,1.60
2022-10-11T05:39:01.939Z,1.70
2022-10-11T05:40:01.929Z,1.80
2022-10-11T05:41:03.617Z,1.50
2022-10-11T05:42:01.908Z,1.50
2022-10-11T05:43:01.898Z,1.50
2022-10-11T05:44:01.885Z,1.70
2022-10-11T05:45:01.879Z,1.90
2022-10-11T05:46:02.123Z,1.70
2022-10-11T05:47:01.907Z,1.70
2022-10-11T05:48:01.836Z,1.80
2022-10-11T05:49:01.812Z,1.70
2022-10-11T05:50:01.797Z,1.70
2022-10-11T05:51:01.785Z,2.00
2022-10-11T05:52:01.823Z,1.80
2022-10-11T05:53:01.809Z,1.50
2022-10-11T05:54:01.744Z,2.00
2022-10-11T05:55:01.724Z,1.90
2022-10-11T05:56:01.965Z,2.20
2022-10-11T05:57:01.707Z,1.90
2022-10-11T05:58:01.698Z,2.20
2022-10-11T05:59:02.704Z,1.90
2022-10-11T06:00:01.674Z,1.60
2022-10-11T06:01:01.678Z,1.80
2022-10-11T06:02:01.644Z,1.80
2022-10-11T06:03:01.622Z,1.90
2022-10-11T06:04:01.612Z,1.50
2022-10-11T06:05:01.645Z,1.90
2022-10-11T06:06:01.590Z,1.90
2022-10-11T06:07:01.577Z,1.60
2022-10-11T06:08:01.569Z,2.10
2022-10-11T06:09:01.629Z,1.60
2022-10-11T06:10:01.536Z,1.80
2022-10-11T06:11:01.583Z,2.10
2022-10-11T06:12:01.518Z,1.60
2022-10-11T06:13:01.504Z,2.20
2022-10-11T06:14:01.474Z,2.00
2022-10-11T06:15:01.460Z,2.10
2022-10-11T06:16:01.801Z,2.00
2022-10-11T06:17:01.451Z,1.90
2022-10-11T06:18:01.419Z,1.70
2022-10-11T06:19:01.458Z,1.80
2022-10-11T06:20:01.389Z,1.80
2022-10-11T06:21:01.381Z,2.30
2022-10-11T06:22:01.371Z,1.70
2022-10-11T06:23:01.358Z,2.00
2022-10-11T06:24:01.756Z,1.90
2022-10-11T06:25:01.409Z,1.60
2022-10-11T06:26:01.375Z,2.10
2022-10-11T06:27:01.289Z,1.80
2022-10-11T06:28:01.316Z,1.90
2022-10-11T06:29:01.332Z,2.10
2022-10-11T06:30:01.260Z,1.80
2022-10-11T06:31:02.957Z,1.90
2022-10-11T06:32:01.219Z,2.40
2022-10-11T06:33:04.642Z,2.10
2022-10-11T06:34:01.197Z,2.00
2022-10-11T06:35:01.205Z,1.90
2022-10-11T06:36:01.361Z,2.00
2022-10-11T06:37:02.928Z,1.90
2022-10-11T06:38:01.217Z,1.80
2022-10-11T06:39:01.127Z,2.10
2022-10-11T06:40:01.117Z,2.20
2022-10-11T06:41:01.106Z,2.20
2022-10-11T06:42:01.092Z,1.80
2022-10-11T06:43:04.326Z,2.20
2022-10-11T06:44:01.057Z,2.30
2022-10-11T06:45:01.044Z,2.50
2022-10-11T06:46:01.034Z,1.90
2022-10-11T06:47:01.026Z,2.00
2022-10-11T06:48:01.008Z,2.70
2022-10-11T06:49:01.044Z,2.30
2022-10-11T06:50:01.253Z,2.60
2022-10-11T06:51:01.036Z,2.50
2022-10-11T06:52:00.955Z,2.30
2022-10-11T06:53:00.944Z,2.00
2022-10-11T06:54:00.934Z,2.20
2022-10-11T06:55:02.634Z,2.50
2022-10-11T06:56:00.908Z,2.60
2022-10-11T06:57:00.884Z,2.10
2022-10-11T06:58:00.873Z,2.10
2022-10-11T06:59:00.872Z,2.10
2022-10-11T07:00:00.870Z,2.50
2022-10-11T07:01:00.950Z,2.60
2022-10-11T07:02:00.852Z,2.30
2022-10-11T07:03:00.805Z,2.40
2022-10-11T07:04:00.781Z,2.10
2022-10-11T07:05:00.771Z,2.30
2022-10-11T07:06:02.595Z,2.30
2022-10-11T07:07:00.818Z,2.50
2022-10-11T07:08:00.731Z,2.40
2022-10-11T07:09:00.724Z,2.40
2022-10-11T07:10:00.711Z,2.90
2022-10-11T07:11:00.702Z,2.50
2022-10-11T07:12:00.681Z,2.80
2022-10-11T07:13:00.702Z,2.60
2022-10-11T07:14:00.650Z,2.60
2022-10-11T07:15:00.639Z,2.20
2022-10-11T07:16:00.629Z,2.60
2022-10-11T07:17:00.601Z,2.90
2022-10-11T07:18:00.600Z,2.70
2022-10-11T07:19:01.189Z,2.80
2022-10-11T07:20:00.599Z,2.70
2022-10-11T07:21:00.553Z,2.70
2022-10-11T07:22:00.539Z,2.40
2022-10-11T07:23:00.520Z,2.70
2022-10-11T07:24:00.528Z,2.60
2022-10-11T07:25:00.582Z,3.00
2022-10-11T07:26:00.579Z,2.90
2022-10-11T07:27:00.469Z,2.80
2022-10-11T07:28:00.498Z,3.00
2022-10-11T07:29:00.554Z,3.20
2022-10-11T07:30:00.467Z,3.40
2022-10-11T07:31:00.479Z,2.50
2022-10-11T07:32:00.414Z,2.90
2022-10-11T07:33:00.397Z,3.10
2022-10-11T07:34:00.384Z,3.00
2022-10-11T07:35:00.358Z,2.90
2022-10-11T07:36:00.369Z,2.90
2022-10-11T07:37:00.414Z,2.80
2022-10-11T07:38:00.318Z,3.60
2022-10-11T07:39:00.308Z,2.70
2022-10-11T07:40:00.296Z,3.00
2022-10-11T07:41:00.306Z,3.40
2022-10-11T07:42:00.265Z,3.00
2022-10-11T07:43:01.966Z,2.90
2022-10-11T07:44:00.245Z,3.00
2022-10-11T07:45:00.238Z,3.30
2022-10-11T07:46:00.226Z,3.20
2022-10-11T07:47:00.215Z,3.40
2022-10-11T07:48:00.206Z,3.10
2022-10-11T07:49:00.265Z,3.30
2022-10-11T07:50:00.163Z,3.30
2022-10-11T07:51:00.258Z,3.30
2022-10-11T07:52:00.141Z,3.30
2022-10-11T07:53:00.133Z,3.00
2022-10-11T07:54:03.494Z,3.00
2022-10-11T07:55:04.371Z,3.00
2022-10-11T07:56:00.095Z,3.20
2022-10-11T07:57:00.082Z,2.90
2022-10-11T07:58:00.060Z,2.80
2022-10-11T07:59:00.066Z,2.80
2022-10-11T08:00:00.032Z,3.20
2022-10-11T08:01:01.797Z,3.20
2022-10-11T08:02:00.098Z,3.30
2022-10-11T08:03:00.001Z,3.10
2022-10-11T08:03:59.974Z,3.30
2022-10-11T08:04:59.952Z,3.40
2022-10-11T08:05:59.961Z,3.20
2022-10-11T08:07:00.020Z,3.10
2022-10-11T08:07:59.932Z,3.00
2022-10-11T08:08:59.921Z,2.90
2022-10-11T08:09:59.905Z,2.80
2022-10-11T08:10:59.881Z,3.50
2022-10-11T08:11:59.884Z,3.50
2022-10-11T08:13:04.450Z,3.30
2022-10-11T08:13:59.843Z,3.50
2022-10-11T08:14:59.827Z,3.20
2022-10-11T08:15:59.822Z,3.10
2022-10-11T08:16:59.803Z,3.80
2022-10-11T08:17:59.791Z,2.90
2022-10-11T08:18:59.818Z,2.90
2022-10-11T08:19:59.761Z,3.20
2022-10-11T08:20:59.748Z,3.40
2022-10-11T08:21:59.741Z,3.20
2022-10-11T08:22:59.730Z,3.10
2022-10-11T08:23:59.719Z,2.90
2022-10-11T08:25:00.088Z,3.40
2022-10-11T08:25:59.689Z,3.00
2022-10-11T08:26:59.668Z,3.30
2022-10-11T08:27:59.669Z,2.80
2022-10-11T08:28:59.743Z,3.00
2022-10-11T08:29:59.639Z,3.30
2022-10-11T08:30:59.669Z,2.80
2022-10-11T08:31:59.610Z,2.70
2022-10-11T08:32:59.595Z,2.90
2022-10-11T08:33:59.598Z,2.60
2022-10-11T08:34:59.568Z,2.50
2022-10-11T08:35:59.574Z,2.80
2022-10-11T08:36:59.610Z,3.00
2022-10-11T08:37:59.536Z,3.00
2022-10-11T08:38:59.523Z,3.00
2022-10-11T08:39:59.496Z,2.60
2022-10-11T08:40:59.499Z,2.80
2022-10-11T08:41:59.466Z,2.80
2022-10-11T08:42:59.536Z,3.00
2022-10-11T08:43:59.463Z,2.80
2022-10-11T08:45:10.655Z,2.50
2022-10-11T08:46:00.446Z,2.90
2022-10-11T08:47:00.595Z,3.40
2022-10-11T08:47:59.398Z,2.70
2022-10-11T08:48:59.457Z,3.40
2022-10-11T08:49:59.393Z,3.00
2022-10-11T08:50:59.365Z,3.10
2022-10-11T08:51:59.351Z,2.90
2022-10-11T08:52:59.339Z,3.20
2022-10-11T08:54:03.425Z,3.20
2022-10-11T08:55:00.369Z,3.20
2022-10-11T08:55:59.297Z,3.20
2022-10-11T08:56:59.284Z,3.30
2022-10-11T08:57:59.277Z,3.20
2022-10-11T08:58:59.255Z,3.40
2022-10-11T08:59:59.237Z,3.00
2022-10-11T09:00:59.294Z,3.30
2022-10-11T09:01:59.341Z,3.00
2022-10-11T09:03:08.457Z,3.00
2022-10-11T09:04:00.194Z,3.30
2022-10-11T09:04:59.184Z,3.50
2022-10-11T09:05:59.163Z,3.00
2022-10-11T09:07:04.746Z,3.10
2022-10-11T09:07:59.147Z,3.00
2022-10-11T09:08:59.124Z,2.90
2022-10-11T09:09:59.145Z,3.10
2022-10-11T09:10:59.095Z,3.00
2022-10-11T09:11:59.165Z,2.70
2022-10-11T09:13:00.873Z,3.00
2022-10-11T09:13:59.093Z,3.00
2022-10-11T09:14:59.042Z,2.90
2022-10-11T09:15:59.033Z,3.10
2022-10-11T09:16:59.023Z,2.90
2022-10-11T09:17:59.076Z,2.90
2022-10-11T09:18:59.053Z,2.70
2022-10-11T09:19:58.973Z,2.70
2022-10-11T09:20:58.962Z,2.80
2022-10-11T09:21:58.952Z,2.60
2022-10-11T09:22:58.944Z,2.70
2022-10-11T09:23:58.921Z,2.50
2022-10-11T09:24:58.987Z,2.50
2022-10-11T09:25:58.894Z,2.30
2022-10-11T09:26:58.891Z,2.60
2022-10-11T09:28:02.959Z,3.20
2022-10-11T09:29:01.460Z,2.70
2022-10-11T09:29:58.841Z,2.50
2022-10-11T09:30:58.893Z,2.90
2022-10-11T09:31:58.813Z,2.80
2022-10-11T09:32:58.811Z,2.90
2022-10-11T09:33:58.782Z,3.00
2022-10-11T09:34:58.781Z,3.10
2022-10-11T09:35:58.782Z,2.70
2022-10-11T09:36:58.823Z,2.90
2022-10-11T09:37:58.741Z,2.40
2022-10-11T09:39:01.835Z,2.80
2022-10-11T09:39:59.755Z,2.90
2022-10-11T09:40:58.711Z,3.20
2022-10-11T09:41:58.691Z,3.10
2022-10-11T09:43:00.378Z,2.40
2022-10-11T09:43:58.667Z,2.80
2022-10-11T09:44:58.651Z,2.80
2022-10-11T09:45:58.641Z,2.80
2022-10-11T09:46:58.630Z,2.80
2022-10-11T09:47:58.608Z,2.60
2022-10-11T09:48:58.646Z,2.60
2022-10-11T09:49:58.579Z,2.80
2022-10-11T09:50:58.579Z,2.40
2022-10-11T09:51:58.550Z,2.90
2022-10-11T09:52:58.542Z,2.40
2022-10-11T09:53:58.539Z,2.70
2022-10-11T09:55:01.743Z,2.50
2022-10-11T09:55:58.519Z,3.20
2022-10-11T09:56:58.502Z,3.00
2022-10-11T09:57:58.477Z,2.80
2022-10-11T09:58:58.459Z,2.90
2022-10-11T09:59:58.477Z,2.60
2022-10-11T10:01:07.352Z,2.80
2022-10-11T10:01:59.528Z,2.50
2022-10-11T10:02:58.420Z,2.50
2022-10-11T10:03:58.429Z,2.80
2022-10-11T10:04:58.415Z,2.50
2022-10-11T10:05:58.379Z,2.30
2022-10-11T10:06:58.450Z,2.50
2022-10-11T10:08:01.580Z,2.70
2022-10-11T10:08:59.337Z,2.50
2022-10-11T10:09:58.327Z,2.40
2022-10-11T10:10:59.679Z,2.40
2022-10-11T10:11:58.287Z,2.30
2022-10-11T10:12:58.339Z,2.50
2022-10-11T10:13:58.268Z,2.50
2022-10-11T10:15:07.152Z,2.40
2022-10-11T10:15:58.324Z,2.20
2022-10-11T10:16:59.906Z,2.40
2022-10-11T10:17:58.452Z,2.20
2022-10-11T10:18:58.635Z,2.40
2022-10-11T10:19:58.290Z,2.50
2022-10-11T10:20:58.251Z,2.50
2022-10-11T10:21:58.212Z,2.50
2022-10-11T10:22:58.152Z,2.50
2022-10-11T10:23:58.252Z,2.30
2022-10-11T10:24:59.933Z,2.50
2022-10-11T10:25:58.153Z,2.60
2022-10-11T10:26:58.341Z,2.50
2022-10-11T10:27:58.213Z,2.60
2022-10-11T10:28:58.389Z,2.40
2022-10-11T10:29:58.079Z,2.40
2022-10-11T10:30:58.125Z,2.50
2022-10-11T10:32:14.592Z,2.80
2022-10-11T10:32:59.018Z,2.40
2022-10-11T10:33:58.079Z,2.70
2022-10-11T10:34:58.030Z,2.30
2022-10-11T10:35:57.990Z,2.50
2022-10-11T10:36:58.025Z,2.30
2022-10-11T10:37:58.052Z,2.80
2022-10-11T10:38:58.193Z,2.80
2022-10-11T10:39:58.012Z,2.40
2022-10-11T10:40:58.085Z,2.50
2022-10-11T10:41:58.138Z,2.50
2022-10-11T10:42:58.148Z,2.70
2022-10-11T10:43:57.895Z,2.40
2022-10-11T10:44:58.036Z,2.40
2022-10-11T10:45:57.864Z,2.30
2022-10-11T10:46:57.831Z,2.40
2022-10-11T10:47:57.818Z,2.10
2022-10-11T10:49:58.791Z,2.30
2022-10-11T10:50:57.781Z,2.50
2022-10-11T10:51:57.782Z,2.30
2022-10-11T10:52:57.842Z,2.40
2022-10-11T10:53:58.148Z,2.70
2022-10-11T10:55:00.871Z,2.50
2022-10-11T10:55:57.785Z,3.00
2022-10-11T10:56:57.703Z,2.70
2022-10-11T10:57:57.688Z,2.80
2022-10-11T10:58:57.682Z,2.30
2022-10-11T10:59:57.659Z,3.10
2022-10-11T11:00:57.739Z,3.00
2022-10-11T11:01:57.703Z,2.70
2022-10-11T11:02:57.707Z,2.70
2022-10-11T11:03:57.923Z,2.80
2022-10-11T11:05:57.699Z,2.60
2022-10-11T11:06:57.917Z,2.80
2022-10-11T11:07:57.698Z,3.10
2022-10-11T11:08:57.801Z,2.50
2022-10-11T11:09:57.523Z,2.50
2022-10-11T11:10:57.571Z,2.60
2022-10-11T11:11:57.507Z,2.90
2022-10-11T11:13:00.808Z,2.30
2022-10-11T11:13:57.477Z,2.80
2022-10-11T11:14:57.468Z,2.80
2022-10-11T11:15:57.450Z,2.60
2022-10-11T11:16:57.438Z,2.90
2022-10-11T11:17:57.418Z,2.70
2022-10-11T11:18:57.487Z,2.60
2022-10-11T11:19:57.416Z,2.80
2022-10-11T11:20:57.378Z,2.60
2022-10-11T11:21:57.367Z,2.40
2022-10-11T11:22:57.348Z,2.70
2022-10-11T11:23:57.337Z,3.20
2022-10-11T11:24:57.395Z,2.20
2022-10-11T11:25:57.308Z,2.60
2022-10-11T11:26:57.297Z,2.80
2022-10-11T11:27:57.278Z,2.70
2022-10-11T11:28:57.270Z,2.90
2022-10-11T11:29:57.267Z,3.00
2022-10-11T11:31:05.319Z,2.60
2022-10-11T11:31:57.235Z,2.90
2022-10-11T11:32:57.262Z,2.70
2022-10-11T11:33:57.217Z,2.60
2022-10-11T11:34:57.186Z,2.20
2022-10-11T11:35:57.177Z,2.70
2022-10-11T11:37:00.378Z,2.40
2022-10-11T11:38:01.393Z,2.40
2022-10-11T11:38:58.146Z,2.80
2022-10-11T11:39:57.137Z,2.50
2022-10-11T11:40:57.116Z,2.60
2022-10-11T11:41:57.094Z,2.60
2022-10-11T11:42:57.146Z,3.00
2022-10-11T11:43:57.074Z,2.40
2022-10-11T11:44:57.081Z,2.60
2022-10-11T11:45:57.065Z,2.80
2022-10-11T11:46:57.095Z,2.70
2022-10-11T11:47:57.017Z,2.90
2022-10-11T11:48:57.096Z,2.50
2022-10-11T11:49:57.006Z,2.90
2022-10-11T11:50:57.009Z,2.50
2022-10-11T11:51:57.026Z,2.80
2022-10-11T11:52:56.975Z,2.50
2022-10-11T11:53:57.252Z,2.20
2022-10-11T11:55:03.756Z,2.40
2022-10-11T11:55:57.977Z,3.00
2022-10-11T11:56:56.907Z,2.60
2022-10-11T11:57:57.085Z,2.60
2022-10-11T11:58:57.089Z,2.80
2022-10-11T11:59:57.104Z,2.30
2022-10-11T12:00:56.937Z,2.50
2022-10-11T12:01:57.036Z,2.70
2022-10-11T12:02:57.278Z,2.30
2022-10-11T12:03:57.225Z,2.70
2022-10-11T12:04:56.952Z,2.40
2022-10-11T12:05:57.159Z,2.70
2022-10-11T12:07:14.941Z,2.70
2022-10-11T12:07:57.814Z,2.50
2022-10-11T12:08:56.832Z,2.40
2022-10-11T12:09:56.786Z,2.40
2022-10-11T12:10:58.503Z,2.60
2022-10-11T12:11:56.698Z,2.40
2022-10-11T12:12:56.684Z,2.70
2022-10-11T12:13:56.663Z,2.20
2022-10-11T12:14:56.682Z,2.30
2022-10-11T12:15:56.644Z,2.00
2022-10-11T12:16:56.706Z,2.20
2022-10-11T12:17:56.660Z,2.20
2022-10-11T12:18:56.678Z,2.40
2022-10-11T12:19:56.617Z,2.20
2022-10-11T12:20:56.585Z,2.20
2022-10-11T12:21:56.575Z,2.10
2022-10-11T12:22:59.784Z,2.50
2022-10-11T12:23:56.556Z,2.00
2022-10-11T12:24:56.533Z,2.20
2022-10-11T12:25:56.517Z,2.60
2022-10-11T12:26:56.496Z,2.40
2022-10-11T12:27:56.478Z,2.00
2022-10-11T12:29:01.769Z,2.20
2022-10-11T12:29:56.464Z,2.30
2022-10-11T12:30:56.444Z,2.10
2022-10-11T12:31:56.444Z,2.60
2022-10-11T12:32:56.414Z,2.20
2022-10-11T12:33:56.481Z,2.20
2022-10-11T12:34:56.454Z,2.20
2022-10-11T12:35:56.385Z,2.30
2022-10-11T12:36:56.364Z,2.10
2022-10-11T12:37:56.346Z,2.20
2022-10-11T12:38:56.342Z,2.20
2022-10-11T12:39:56.326Z,2.20
2022-10-11T12:40:56.463Z,2.10
2022-10-11T12:41:56.304Z,1.90
2022-10-11T12:42:56.293Z,2.60
2022-10-11T12:43:56.304Z,2.10
2022-10-11T12:44:56.253Z,2.00
2022-10-11T12:45:56.233Z,2.30
2022-10-11T12:46:56.343Z,2.00
2022-10-11T12:47:56.214Z,2.30
2022-10-11T12:49:03.234Z,2.40
2022-10-11T12:49:56.260Z,1.70
2022-10-11T12:50:59.578Z,1.80
2022-10-11T12:51:58.903Z,2.20
2022-10-11T12:52:56.168Z,2.60
2022-10-11T12:54:21.529Z,2.30
2022-10-11T12:54:57.142Z,2.50
2022-10-11T12:55:56.112Z,2.20
2022-10-11T12:56:56.171Z,2.30
2022-10-11T12:57:57.812Z,2.40
2022-10-11T12:58:56.078Z,2.00
2022-10-11T12:59:56.070Z,2.30
2022-10-11T13:00:56.097Z,2.50
2022-10-11T13:01:56.042Z,2.00
2022-10-11T13:02:56.021Z,2.50
2022-10-11T13:03:56.050Z,2.40
2022-10-11T13:04:55.991Z,1.90
2022-10-11T13:05:59.125Z,2.20
2022-10-11T13:06:57.036Z,2.40
2022-10-11T13:07:56.013Z,2.30
2022-10-11T13:08:55.981Z,2.20
2022-10-11T13:09:57.674Z,2.30
2022-10-11T13:10:55.935Z,2.00
2022-10-11T13:11:55.900Z,1.90
2022-10-11T13:12:55.919Z,2.10
2022-10-11T13:13:55.881Z,1.70
2022-10-11T13:14:55.861Z,2.20
2022-10-11T13:15:55.892Z,2.00
2022-10-11T13:16:55.901Z,1.80
2022-10-11T13:17:55.820Z,2.40
2022-10-11T13:18:55.810Z,2.50
2022-10-11T13:19:55.792Z,2.10
2022-10-11T13:20:55.780Z,2.10
2022-10-11T13:21:55.823Z,2.20
2022-10-11T13:22:55.759Z,2.20
2022-10-11T13:23:55.741Z,2.20
2022-10-11T13:24:55.739Z,2.20
2022-10-11T13:25:55.719Z,2.10
2022-10-11T13:26:55.709Z,2.00
2022-10-11T13:27:57.439Z,2.10
2022-10-11T13:28:55.702Z,2.40
2022-10-11T13:29:55.675Z,2.00
2022-10-11T13:30:55.650Z,1.90
2022-10-11T13:31:55.647Z,2.30
2022-10-11T13:32:55.630Z,2.20
2022-10-11T13:33:55.682Z,1.70
2022-10-11T13:35:55.599Z,2.10
2022-10-11T13:36:55.579Z,1.90
2022-10-11T13:37:55.577Z,3.10
2022-10-11T13:38:55.548Z,2.40
2022-10-11T13:39:55.598Z,1.80
2022-10-11T13:40:55.529Z,1.80
2022-10-11T13:41:55.515Z,1.80
2022-10-11T13:42:55.489Z,2.10
2022-10-11T13:43:55.489Z,2.00
2022-10-11T13:44:55.481Z,1.70
2022-10-11T13:45:58.687Z,1.80
2022-10-11T13:46:55.446Z,1.80
2022-10-11T13:47:55.437Z,1.90
2022-10-11T13:48:55.416Z,1.70
2022-10-11T13:49:55.437Z,2.00
2022-10-11T13:50:55.386Z,1.80
2022-10-11T13:51:55.426Z,2.10
2022-10-11T13:52:55.368Z,2.10
2022-10-11T13:53:55.356Z,2.30
2022-10-11T13:54:55.337Z,2.10
2022-10-11T13:55:55.366Z,1.80
2022-10-11T13:56:55.314Z,2.00
2022-10-11T13:57:55.306Z,1.80
2022-10-11T13:58:55.285Z,1.80
2022-10-11T13:59:55.301Z,2.00
2022-10-11T14:00:55.266Z,1.80
2022-10-11T14:01:55.407Z,1.80
2022-10-11T14:02:55.234Z,1.90
2022-10-11T14:03:55.216Z,1.70
2022-10-11T14:04:55.205Z,1.70
2022-10-11T14:05:55.202Z,1.90
2022-10-11T14:06:55.218Z,2.10
2022-10-11T14:07:55.216Z,2.20
2022-10-11T14:08:55.186Z,2.00
2022-10-11T14:09:55.147Z,1.90
2022-10-11T14:10:57.799Z,1.80
2022-10-11T14:11:55.126Z,1.80
2022-10-11T14:12:55.105Z,2.20
2022-10-11T14:13:55.166Z,2.10
2022-10-11T14:14:55.074Z,1.70
2022-10-11T14:15:55.065Z,2.00
2022-10-11T14:16:55.045Z,2.10
2022-10-11T14:17:55.037Z,2.10
2022-10-11T14:18:55.014Z,2.00
2022-10-11T14:20:05.087Z,2.00
2022-10-11T14:20:55.994Z,1.90
2022-10-11T14:21:54.983Z,2.10
2022-10-11T14:22:54.964Z,1.90
2022-10-11T14:23:54.952Z,1.70
2022-10-11T14:24:54.951Z,2.10
2022-10-11T14:25:54.993Z,1.90
2022-10-11T14:26:54.923Z,2.30
2022-10-11T14:27:54.912Z,1.80
2022-10-11T14:28:54.943Z,2.00
2022-10-11T14:30:23.589Z,2.00
2022-10-11T14:30:55.885Z,2.20
2022-10-11T14:31:54.962Z,2.20
2022-10-11T14:32:54.841Z,1.90
2022-10-11T14:33:54.881Z,2.10
2022-10-11T14:34:54.812Z,2.00
2022-10-11T14:35:54.801Z,2.10
2022-10-11T14:36:54.781Z,2.10
2022-10-11T14:37:54.822Z,2.20
2022-10-11T14:38:54.772Z,2.20
2022-10-11T14:39:54.741Z,2.00
2022-10-11T14:40:54.730Z,2.20
2022-10-11T14:41:54.710Z,2.00
2022-10-11T14:42:54.708Z,2.20
2022-10-11T14:43:54.759Z,2.20
2022-10-11T14:44:54.671Z,2.00
2022-10-11T14:45:54.661Z,2.00
2022-10-11T14:46:55.081Z,2.10
2022-10-11T14:47:54.759Z,1.90
2022-10-11T14:48:56.062Z,2.30
2022-10-11T14:49:54.681Z,2.10
2022-10-11T14:50:54.590Z,2.30
2022-10-11T14:51:54.586Z,2.30
2022-10-11T14:52:54.570Z,2.10
2022-10-11T14:53:54.571Z,2.40
2022-10-11T14:54:54.558Z,2.20
2022-10-11T14:55:54.594Z,2.20
2022-10-11T14:56:54.510Z,2.60
2022-10-11T14:57:54.505Z,2.50
2022-10-11T14:58:54.488Z,2.10
2022-10-11T14:59:54.478Z,2.20
2022-10-11T15:00:54.458Z,2.40
2022-10-11T15:01:54.591Z,2.30
2022-10-11T15:02:54.458Z,2.10
2022-10-11T15:03:54.438Z,2.40
2022-10-11T15:04:54.415Z,2.10
2022-10-11T15:05:54.407Z,2.20
2022-10-11T15:06:54.392Z,2.40
2022-10-11T15:07:54.417Z,3.00
2022-10-11T15:08:54.348Z,2.60
2022-10-11T15:09:54.341Z,2.10
2022-10-11T15:10:54.326Z,2.40
2022-10-11T15:11:54.333Z,2.20
2022-10-11T15:12:54.299Z,2.40
2022-10-11T15:13:54.343Z,2.80
2022-10-11T15:14:54.267Z,2.00
2022-10-11T15:15:54.267Z,2.20
2022-10-11T15:16:54.247Z,2.10
2022-10-11T15:17:54.235Z,2.10
2022-10-11T15:18:54.217Z,2.30
2022-10-11T15:19:54.294Z,2.50
2022-10-11T15:20:54.225Z,2.30
2022-10-11T15:21:54.196Z,2.50
2022-10-11T15:22:54.185Z,2.50
2022-10-11T15:23:54.155Z,2.40
2022-10-11T15:24:54.143Z,2.10
2022-10-11T15:25:54.186Z,2.30
2022-10-11T15:26:54.120Z,2.30
2022-10-11T15:27:55.825Z,2.50
2022-10-11T15:28:54.224Z,2.30
2022-10-11T15:29:54.075Z,2.20
2022-10-11T15:30:54.063Z,2.50
2022-10-11T15:31:54.049Z,2.40
2022-10-11T15:32:54.035Z,1.90
2022-10-11T15:33:54.064Z,2.30
2022-10-11T15:34:54.012Z,2.50
2022-10-11T15:35:53.993Z,2.10
2022-10-11T15:36:54.093Z,2.20
2022-10-11T15:37:54.042Z,2.70
2022-10-11T15:38:53.964Z,2.30
2022-10-11T15:39:53.950Z,2.30
2022-10-11T15:40:53.923Z,2.30
2022-10-11T15:41:53.920Z,2.20
2022-10-11T15:42:53.902Z,2.20
2022-10-11T15:43:53.948Z,2.10
2022-10-11T15:44:53.875Z,2.60
2022-10-11T15:45:53.877Z,2.40
2022-10-11T15:46:53.843Z,2.40
2022-10-11T15:47:53.845Z,2.60
2022-10-11T15:48:53.820Z,2.10
2022-10-11T15:49:57.043Z,2.20
2022-10-11T15:50:53.833Z,2.00
2022-10-11T15:51:53.782Z,2.30
2022-10-11T15:52:53.793Z,2.40
2022-10-11T15:53:53.761Z,2.30
2022-10-11T15:54:54.427Z,2.40
2022-10-11T15:55:53.792Z,1.90
2022-10-11T15:56:53.733Z,2.30
2022-10-11T15:57:53.714Z,2.70
2022-10-11T15:58:53.811Z,2.20
2022-10-11T15:59:53.681Z,2.00
2022-10-11T16:00:53.706Z,2.60
2022-10-11T16:01:53.739Z,2.20
2022-10-11T16:02:53.642Z,2.30
2022-10-11T16:03:53.634Z,2.50
2022-10-11T16:04:53.619Z,2.00
2022-10-11T16:05:53.606Z,2.40
2022-10-11T16:06:53.670Z,2.30
2022-10-11T16:07:56.900Z,2.20
2022-10-11T16:08:53.561Z,2.80
2022-10-11T16:09:53.550Z,2.50
2022-10-11T16:10:53.548Z,2.40
2022-10-11T16:11:53.550Z,2.40
2022-10-11T16:12:53.557Z,2.40
2022-10-11T16:13:53.679Z,2.30
2022-10-11T16:14:53.487Z,2.20
2022-10-11T16:16:00.525Z,2.30
2022-10-11T16:16:53.481Z,1.90
2022-10-11T16:17:53.479Z,2.50
2022-10-11T16:18:56.123Z,2.60
2022-10-11T16:19:53.575Z,1.90
2022-10-11T16:20:53.396Z,2.30
2022-10-11T16:21:53.451Z,2.00
2022-10-11T16:22:53.387Z,2.40
2022-10-11T16:23:53.356Z,2.30
2022-10-11T16:24:53.378Z,2.10
2022-10-11T16:25:53.404Z,2.50
2022-10-11T16:26:53.350Z,2.30
2022-10-11T16:27:53.314Z,2.30
2022-10-11T16:28:53.338Z,2.30
2022-10-11T16:29:53.323Z,2.20
2022-10-11T16:30:53.284Z,2.00
2022-10-11T16:31:53.312Z,2.20
2022-10-11T16:32:53.281Z,2.20
2022-10-11T16:33:53.232Z,2.40
2022-10-11T16:34:53.238Z,2.30
2022-10-11T16:35:53.212Z,2.50
2022-10-11T16:36:53.208Z,2.70
2022-10-11T16:37:53.242Z,2.20
2022-10-11T16:38:53.162Z,2.80
2022-10-11T16:39:53.268Z,2.70
2022-10-11T16:40:53.141Z,2.20
2022-10-11T16:41:53.143Z,2.10
2022-10-11T16:42:53.101Z,2.20
2022-10-11T16:43:53.132Z,2.30
2022-10-11T16:44:53.083Z,2.40
2022-10-11T16:45:53.073Z,2.40
2022-10-11T16:46:53.067Z,2.30
2022-10-11T16:47:53.063Z,2.60
2022-10-11T16:48:53.091Z,3.10
2022-10-11T16:49:53.199Z,2.90
2022-10-11T16:50:53.010Z,2.90
2022-10-11T16:51:52.998Z,2.50
2022-10-11T16:52:52.993Z,3.10
2022-10-11T16:53:52.980Z,3.10
2022-10-11T16:54:53.000Z,2.40
2022-10-11T16:55:52.945Z,2.60
2022-10-11T16:56:52.931Z,2.60
2022-10-11T16:57:52.979Z,2.70
2022-10-11T16:58:52.914Z,3.00
2022-10-11T16:59:52.900Z,3.20
2022-10-11T17:00:52.987Z,2.60
2022-10-11T17:01:52.874Z,2.80
2022-10-11T17:02:52.873Z,2.80
2022-10-11T17:03:52.840Z,3.30
2022-10-11T17:04:52.829Z,3.50
2022-10-11T17:05:52.828Z,3.30
2022-10-11T17:06:54.533Z,2.80
2022-10-11T17:07:52.846Z,2.60
2022-10-11T17:08:52.775Z,2.60
2022-10-11T17:09:59.767Z,2.80
2022-10-11T17:10:59.741Z,3.20
2022-10-11T17:12:04.738Z,3.40
2022-10-11T17:12:59.734Z,2.80
2022-10-11T17:13:52.701Z,3.00
2022-10-11T17:14:52.693Z,2.90
2022-10-11T17:15:52.694Z,3.00
2022-10-11T17:16:52.654Z,2.80
2022-10-11T17:17:56.447Z,3.00
2022-10-11T17:18:52.634Z,2.80
2022-10-11T17:19:52.615Z,2.60
2022-10-11T17:20:52.602Z,2.80
2022-10-11T17:21:52.594Z,2.90